Overview Statistics Trail Chart Weather Telemetry Raw packets
 

This is the latest recevied weather packets stored in our database for station/object LA4M-10. If no packets are shown the sender has not sent any weather packets the latest 10 day(s).

<< 20 21 22 23 24 25 26 >>
Time Temp. Humidity Pressure Rain* Wind** Luminosity Snow
1788167605 9.44° C 100% 940.3 hPa - - - -
1788166705 9.44° C 100% 940.3 hPa - - - -
1788165805 8.89° C 100% 940.3 hPa - - - -
1788164905 8.89° C 100% 940.2 hPa - - - -
1788164004 8.89° C 100% 940.2 hPa - - - -
1788163104 8.89° C 100% 940.1 hPa - - - -
1788162204 8.89° C 100% 940.2 hPa - - - -
1788161304 8.89° C 100% 940 hPa - - - -
1788160404 8.89° C 100% 940 hPa - - - -
1788159504 8.89° C 100% 939.8 hPa - - - -
1788158604 9.44° C 100% 939.6 hPa - - - -
1788015155 16.11° C 100% 935 hPa - - - -
1788014255 16.11° C 100% 934.9 hPa - - - -
1788013354 16.11° C 100% 934.8 hPa - - - -
1788012454 16.11° C 100% 934.7 hPa - - - -
1788011554 16.11° C 100% 934.5 hPa - - - -
1788010654 15° C 100% 934.6 hPa - - - -
1788009754 14.44° C 100% 934.5 hPa - - - -
1788008854 14.44° C 100% 934.4 hPa - - - -
1788007953 14.44° C 100% 934.2 hPa - - - -
1788007053 15° C 100% 934.3 hPa - - - -
1788006153 16.67° C 100% 934.1 hPa - - - -
1788005253 15.56° C 100% 934.3 hPa - - - -
1788004353 15.56° C 100% 934.1 hPa - - - -
1788003453 13.89° C 100% 934.3 hPa - - - -

* Rain since midnight (hover to see other rain measurements)
** Current wind speed in m/s (hover to see current wind gust speed)